Time;durP1;ratioP1;P1;durP2;ratioP2;P2;SDS_P1;SDS_P2;PMS_P1;PMS_P2;Temp;Humidity;BMP_temperature;BMP_pressure;BME280_temperature;BME280_humidity;BME280_pressure;Samples;Min_cycle;Max_cycle;Signal;HPM_P1;HPM_P2
2024/01/16 00:00:35;;;;;;;93.82;90.55;;;;;;;;;;5111973;28;20044;-70
2024/01/16 00:03:02;;;;;;;94.45;91.05;;;;;;;;;;5097708;28;20548;-69
2024/01/16 00:05:28;;;;;;;95.75;92.38;;;;;;;;;;5091054;28;20129;-69
2024/01/16 00:07:55;;;;;;;104.28;100.68;;;;;;;;;;5091076;28;20044;-69
2024/01/16 00:10:21;;;;;;;90.28;87.10;;;;;;;;;;5088431;28;20053;-70
2024/01/16 00:12:48;;;;;;;101.43;97.43;;;;;;;;;;5089078;28;20048;-69
2024/01/16 00:15:14;;;;;;;107.97;104.35;;;;;;;;;;5090711;28;20097;-70
2024/01/16 00:17:42;;;;;;;105.65;102.00;;;;;;;;;;5091060;28;20583;-70
2024/01/16 00:20:09;;;;;;;90.65;87.35;;;;;;;;;;5092426;28;20052;-70
2024/01/16 00:22:37;;;;;;;94.68;91.40;;;;;;;;;;5090216;28;20044;-70
2024/01/16 00:25:04;;;;;;;90.38;87.25;;;;;;;;;;5090637;28;20052;-70
2024/01/16 00:27:30;;;;;;;89.15;86.20;;;;;;;;;;5092526;28;20055;-71
2024/01/16 00:29:57;;;;;;;55.85;53.85;;;;;;;;;;5093547;28;20457;-69
2024/01/16 00:32:23;;;;;;;101.10;97.38;;;;;;;;;;5094753;28;20044;-70
2024/01/16 00:34:51;;;;;;;87.88;84.63;;;;;;;;;;5099850;28;20101;-72
2024/01/16 00:37:18;;;;;;;98.47;95.07;;;;;;;;;;5106587;28;20126;-71
2024/01/16 00:39:44;;;;;;;101.95;98.53;;;;;;;;;;5095240;28;20055;-69
2024/01/16 00:42:11;;;;;;;100.28;96.85;;;;;;;;;;5094480;28;20048;-69
2024/01/16 00:44:37;;;;;;;92.82;89.55;;;;;;;;;;5093300;28;20105;-70
2024/01/16 00:47:05;;;;;;;88.95;85.90;;;;;;;;;;5100373;28;20135;-70
2024/01/16 00:49:31;;;;;;;97.38;93.60;;;;;;;;;;5115335;28;20583;-70
2024/01/16 00:51:59;;;;;;;75.60;73.00;;;;;;;;;;5114684;28;20457;-69
2024/01/16 00:54:26;;;;;;;102.65;99.20;;;;;;;;;;5113259;28;20040;-68
2024/01/16 00:56:55;;;;;;;110.05;106.25;;;;;;;;;;5111096;28;20096;-68
2024/01/16 00:59:21;;;;;;;94.25;91.05;;;;;;;;;;5106211;28;20047;-68
2024/01/16 01:01:48;;;;;;;94.15;90.95;;;;;;;;;;5114739;28;20104;-69
2024/01/16 01:04:14;;;;;;;94.53;91.18;;;;;;;;;;5093925;28;20052;-69
2024/01/16 01:06:41;;;;;;;105.20;101.68;;;;;;;;;;5094497;28;20044;-69
2024/01/16 01:09:11;;;;;;;114.43;110.50;;;;;;;;;;5094526;28;20113;-68
2024/01/16 01:11:38;;;;;;;101.82;98.30;;;;;;;;;;5104874;28;20044;-68
2024/01/16 01:14:04;;;;;;;103.22;99.88;;;;;;;;;;5114791;28;20058;-69
2024/01/16 01:16:31;;;;;;;106.70;103.13;;;;;;;;;;5114436;28;20183;-69
2024/01/16 01:18:57;;;;;;;106.65;103.15;;;;;;;;;;5108970;28;20048;-68
2024/01/16 01:21:24;;;;;;;72.15;69.53;;;;;;;;;;5094185;28;20112;-71
2024/01/16 01:23:50;;;;;;;88.22;85.18;;;;;;;;;;5094301;28;20113;-68
2024/01/16 01:26:19;;;;;;;98.95;95.47;;;;;;;;;;5095217;28;20101;-68
2024/01/16 01:28:46;;;;;;;107.47;103.47;;;;;;;;;;5104573;28;20050;-69
2024/01/16 01:31:12;;;;;;;93.88;90.45;;;;;;;;;;5095702;28;20048;-69
2024/01/16 01:33:39;;;;;;;86.25;83.32;;;;;;;;;;5093650;28;20626;-68
2024/01/16 01:36:05;;;;;;;89.57;86.47;;;;;;;;;;5092881;28;20093;-69
2024/01/16 01:38:32;;;;;;;92.18;89.03;;;;;;;;;;5093287;28;20052;-70
2024/01/16 01:40:58;;;;;;;98.28;95.03;;;;;;;;;;5104968;28;20489;-70
2024/01/16 01:43:26;;;;;;;89.47;86.43;;;;;;;;;;5101953;28;20112;-71
2024/01/16 01:46:00;;;;;;;89.13;85.88;;;;;;;;;;5093825;28;20051;-71
2024/01/16 01:48:27;;;;;;;95.32;91.78;;;;;;;;;;5093448;28;20060;-69
2024/01/16 01:50:53;;;;;;;104.85;101.22;;;;;;;;;;5099888;28;20047;-69
2024/01/16 01:53:20;;;;;;;98.13;94.78;;;;;;;;;;5093524;28;20048;-70
2024/01/16 01:55:47;;;;;;;105.50;101.65;;;;;;;;;;5101764;28;20486;-70
2024/01/16 01:58:13;;;;;;;98.00;94.32;;;;;;;;;;5100252;28;20048;-70
2024/01/16 02:00:41;;;;;;;95.88;92.32;;;;;;;;;;5093293;28;20052;-71
2024/01/16 02:03:08;;;;;;;85.30;82.15;;;;;;;;;;5093322;28;20052;-70
2024/01/16 02:05:34;;;;;;;85.13;82.13;;;;;;;;;;5093437;28;20436;-70
2024/01/16 02:08:01;;;;;;;85.20;82.30;;;;;;;;;;5093413;28;20104;-70
2024/01/16 02:10:28;;;;;;;88.32;85.15;;;;;;;;;;5096946;28;20124;-69
2024/01/16 02:12:54;;;;;;;96.60;93.22;;;;;;;;;;5113527;28;20140;-69
2024/01/16 02:15:21;;;;;;;93.30;89.80;;;;;;;;;;5109850;28;20096;-70
2024/01/16 02:17:49;;;;;;;104.03;100.18;;;;;;;;;;5091676;28;20559;-70
2024/01/16 02:20:16;;;;;;;91.72;87.97;;;;;;;;;;5094922;28;20491;-70
2024/01/16 02:22:46;;;;;;;87.78;84.47;;;;;;;;;;5098764;28;20121;-71
2024/01/16 02:25:13;;;;;;;124.90;120.75;;;;;;;;;;5093194;28;20097;-71
2024/01/16 02:27:40;;;;;;;101.63;98.05;;;;;;;;;;5092894;28;20059;-71
2024/01/16 02:30:07;;;;;;;95.03;91.65;;;;;;;;;;5093022;28;20052;-71
2024/01/16 02:32:33;;;;;;;97.85;94.13;;;;;;;;;;5091464;28;20052;-71
2024/01/16 02:35:00;;;;;;;58.72;56.40;;;;;;;;;;5092769;28;20488;-71
2024/01/16 02:37:26;;;;;;;95.75;92.32;;;;;;;;;;5111885;28;20044;-71
2024/01/16 02:39:53;;;;;;;103.85;99.78;;;;;;;;;;5112997;28;20063;-71
2024/01/16 02:42:21;;;;;;;100.20;96.75;;;;;;;;;;5110238;28;20093;-70
2024/01/16 02:44:47;;;;;;;100.97;97.53;;;;;;;;;;5092606;28;20506;-69
2024/01/16 02:47:14;;;;;;;109.90;106.32;;;;;;;;;;5093954;28;20044;-69
2024/01/16 02:49:41;;;;;;;109.82;105.75;;;;;;;;;;5106378;28;20040;-70
2024/01/16 02:52:08;;;;;;;107.85;104.18;;;;;;;;;;5091829;28;20048;-69
2024/01/16 02:54:34;;;;;;;103.80;100.15;;;;;;;;;;5112768;28;20049;-70
2024/01/16 02:57:00;;;;;;;91.28;88.00;;;;;;;;;;5112724;28;20051;-69
2024/01/16 02:59:30;;;;;;;103.97;100.40;;;;;;;;;;5112398;28;20101;-69
2024/01/16 03:01:57;;;;;;;97.35;93.65;;;;;;;;;;5112399;28;20050;-69
2024/01/16 03:04:23;;;;;;;90.28;87.07;;;;;;;;;;5096644;28;20039;-70
2024/01/16 03:06:50;;;;;;;103.38;99.68;;;;;;;;;;5103958;28;20486;-72
2024/01/16 03:09:16;;;;;;;97.93;94.18;;;;;;;;;;5100645;28;20120;-70
2024/01/16 03:11:43;;;;;;;92.88;89.60;;;;;;;;;;5092074;28;20495;-72
2024/01/16 03:14:09;;;;;;;110.97;106.95;;;;;;;;;;5092045;28;20048;-71
2024/01/16 03:16:37;;;;;;;100.00;96.63;;;;;;;;;;5091890;28;20094;-72
2024/01/16 03:19:03;;;;;;;92.30;88.68;;;;;;;;;;5100188;28;20096;-72
2024/01/16 03:21:30;;;;;;;90.75;87.70;;;;;;;;;;5112444;28;20059;-72
2024/01/16 03:23:56;;;;;;;83.55;80.45;;;;;;;;;;5103514;28;20104;-72
2024/01/16 03:26:23;;;;;;;96.55;93.32;;;;;;;;;;5112569;28;20114;-70
2024/01/16 03:28:49;;;;;;;99.35;96.00;;;;;;;;;;5110196;28;20043;-70
2024/01/16 03:31:16;;;;;;;94.70;91.45;;;;;;;;;;5091875;28;20052;-71
2024/01/16 03:33:44;;;;;;;116.82;112.63;;;;;;;;;;5091667;28;20135;-71
2024/01/16 03:36:12;;;;;;;109.22;105.53;;;;;;;;;;5092004;28;20052;-71
2024/01/16 03:38:38;;;;;;;104.70;101.10;;;;;;;;;;5091655;28;20048;-71
2024/01/16 03:41:06;;;;;;;106.70;103.13;;;;;;;;;;5090826;28;20078;-71
2024/01/16 03:43:33;;;;;;;97.00;93.70;;;;;;;;;;5091731;28;20051;-71
2024/01/16 03:46:00;;;;;;;94.20;91.05;;;;;;;;;;5091620;28;20067;-71
2024/01/16 03:48:26;;;;;;;97.15;93.80;;;;;;;;;;5094780;28;20579;-70
2024/01/16 03:50:54;;;;;;;98.13;94.75;;;;;;;;;;5111709;28;20079;-71
2024/01/16 03:53:21;;;;;;;96.95;93.57;;;;;;;;;;5111819;28;20131;-71
2024/01/16 03:55:48;;;;;;;91.43;88.15;;;;;;;;;;5096113;28;20048;-71
2024/01/16 03:58:14;;;;;;;91.00;87.70;;;;;;;;;;5090094;28;20048;-71
2024/01/16 04:00:41;;;;;;;96.40;93.00;;;;;;;;;;5098573;28;20073;-71
2024/01/16 04:03:07;;;;;;;93.72;90.20;;;;;;;;;;5094501;28;20548;-71
2024/01/16 04:05:34;;;;;;;89.15;85.85;;;;;;;;;;5095992;28;20533;-71
2024/01/16 04:08:02;;;;;;;100.63;96.90;;;;;;;;;;5095476;28;20089;-72
2024/01/16 04:10:28;;;;;;;97.20;94.05;;;;;;;;;;5106772;28;20044;-72
2024/01/16 04:12:55;;;;;;;89.30;86.15;;;;;;;;;;5115854;28;20555;-70
2024/01/16 04:15:22;;;;;;;82.80;80.00;;;;;;;;;;5107084;28;20124;-70
2024/01/16 04:17:48;;;;;;;97.10;93.80;;;;;;;;;;5076718;28;20174;-70
2024/01/16 04:20:15;;;;;;;91.30;88.25;;;;;;;;;;5095564;28;20051;-70
2024/01/16 04:22:41;;;;;;;103.75;100.35;;;;;;;;;;5095346;28;20044;-69
2024/01/16 04:25:09;;;;;;;96.80;93.60;;;;;;;;;;5095198;28;20089;-70
2024/01/16 04:27:36;;;;;;;93.15;89.88;;;;;;;;;;5096427;28;20048;-70
2024/01/16 04:30:02;;;;;;;95.60;91.70;;;;;;;;;;5095306;28;20052;-70
2024/01/16 04:32:29;;;;;;;89.22;86.18;;;;;;;;;;5074848;28;20040;-70
2024/01/16 04:34:55;;;;;;;99.50;95.90;;;;;;;;;;5093012;28;20064;-70
2024/01/16 04:37:22;;;;;;;87.05;83.95;;;;;;;;;;5099602;28;20036;-69
2024/01/16 04:39:48;;;;;;;94.75;91.32;;;;;;;;;;5115298;28;20104;-70
2024/01/16 04:42:17;;;;;;;88.70;85.47;;;;;;;;;;5099472;28;20052;-70
2024/01/16 04:44:44;;;;;;;96.80;93.45;;;;;;;;;;5094712;28;20040;-70
2024/01/16 04:47:11;;;;;;;85.15;81.72;;;;;;;;;;5094752;28;20101;-70
2024/01/16 04:49:38;;;;;;;86.35;82.72;;;;;;;;;;5099859;28;20118;-70
2024/01/16 04:52:04;;;;;;;89.35;86.07;;;;;;;;;;5095067;28;20048;-69
2024/01/16 04:54:31;;;;;;;88.40;84.88;;;;;;;;;;5094736;28;20036;-70
2024/01/16 04:56:57;;;;;;;91.45;87.57;;;;;;;;;;5094568;28;20554;-69
2024/01/16 04:59:25;;;;;;;100.55;96.72;;;;;;;;;;5094661;28;20063;-70
2024/01/16 05:01:52;;;;;;;95.93;92.00;;;;;;;;;;5095597;28;20048;-70
2024/01/16 05:04:18;;;;;;;88.88;85.53;;;;;;;;;;5094742;28;20044;-70
2024/01/16 05:06:45;;;;;;;105.03;100.68;;;;;;;;;;5106311;28;20044;-70
2024/01/16 05:09:12;;;;;;;100.10;96.55;;;;;;;;;;5094955;28;20044;-70
2024/01/16 05:11:38;;;;;;;106.55;102.53;;;;;;;;;;5105846;28;20109;-71
2024/01/16 05:14:05;;;;;;;92.28;88.63;;;;;;;;;;5113590;28;20070;-71
2024/01/16 05:16:32;;;;;;;104.00;100.20;;;;;;;;;;5097169;28;20113;-70
2024/01/16 05:18:59;;;;;;;99.38;95.93;;;;;;;;;;5092900;28;20093;-69
2024/01/16 05:21:25;;;;;;;96.80;93.50;;;;;;;;;;5094485;28;20051;-70
2024/01/16 05:23:52;;;;;;;104.22;100.38;;;;;;;;;;5113386;28;20048;-70
2024/01/16 05:26:18;;;;;;;106.60;102.80;;;;;;;;;;5100116;28;20043;-69
2024/01/16 05:28:45;;;;;;;103.47;99.80;;;;;;;;;;5094137;28;20188;-70
2024/01/16 05:31:11;;;;;;;107.60;103.72;;;;;;;;;;5092755;28;20053;-70
2024/01/16 05:33:39;;;;;;;100.80;96.90;;;;;;;;;;5093783;28;20044;-70
2024/01/16 05:36:06;;;;;;;65.25;62.42;;;;;;;;;;5093892;28;20444;-70
2024/01/16 05:38:33;;;;;;;86.93;83.40;;;;;;;;;;5110423;28;20486;-69
2024/01/16 05:41:00;;;;;;;81.07;78.05;;;;;;;;;;5114234;28;20062;-70
2024/01/16 05:43:28;;;;;;;101.72;97.90;;;;;;;;;;5098345;28;20097;-70
2024/01/16 05:45:55;;;;;;;99.88;96.22;;;;;;;;;;5093723;28;20050;-71
2024/01/16 05:48:21;;;;;;;98.88;95.20;;;;;;;;;;5092500;28;20044;-70
2024/01/16 05:50:49;;;;;;;66.72;64.05;;;;;;;;;;5112101;28;20452;-70
2024/01/16 05:53:15;;;;;;;89.50;86.10;;;;;;;;;;5113594;28;20043;-72
2024/01/16 05:55:42;;;;;;;92.97;89.70;;;;;;;;;;5096349;28;20576;-71
2024/01/16 05:58:08;;;;;;;63.38;60.78;;;;;;;;;;5093451;28;20476;-71
2024/01/16 06:00:35;;;;;;;103.38;99.60;;;;;;;;;;5093774;28;20051;-71
2024/01/16 06:03:02;;;;;;;86.60;83.55;;;;;;;;;;5112751;28;20051;-71
2024/01/16 06:05:29;;;;;;;98.05;94.70;;;;;;;;;;5094056;28;20055;-71
2024/01/16 06:07:57;;;;;;;106.40;102.57;;;;;;;;;;5093180;28;20105;-72
2024/01/16 06:10:23;;;;;;;91.55;88.20;;;;;;;;;;5093291;28;20101;-70
2024/01/16 06:12:50;;;;;;;107.05;103.45;;;;;;;;;;5095964;28;20558;-70
2024/01/16 06:15:16;;;;;;;98.18;94.60;;;;;;;;;;5100472;28;20047;-70
2024/01/16 06:17:43;;;;;;;102.95;99.38;;;;;;;;;;5113548;28;20089;-70
2024/01/16 06:20:10;;;;;;;100.88;97.38;;;;;;;;;;5102121;28;20117;-70
2024/01/16 06:22:36;;;;;;;108.90;104.93;;;;;;;;;;5093227;28;20047;-70
2024/01/16 06:25:05;;;;;;;100.57;96.97;;;;;;;;;;5092945;28;20044;-70
2024/01/16 06:27:31;;;;;;;82.03;78.80;;;;;;;;;;5093076;28;20097;-70
2024/01/16 06:29:58;;;;;;;112.03;107.93;;;;;;;;;;5105986;28;20543;-69
2024/01/16 06:32:24;;;;;;;68.43;65.82;;;;;;;;;;5110675;28;20440;-69
2024/01/16 06:34:51;;;;;;;110.22;106.32;;;;;;;;;;5102643;28;20043;-70
2024/01/16 06:37:17;;;;;;;84.90;81.80;;;;;;;;;;5104924;28;20409;-70
2024/01/16 06:39:44;;;;;;;95.80;92.10;;;;;;;;;;5092545;28;20400;-70
2024/01/16 06:42:12;;;;;;;95.00;91.40;;;;;;;;;;5092710;28;20055;-70
2024/01/16 06:44:38;;;;;;;100.05;96.38;;;;;;;;;;5092671;28;20099;-69
2024/01/16 06:47:05;;;;;;;85.45;82.30;;;;;;;;;;5092565;28;20109;-69
2024/01/16 06:49:31;;;;;;;82.55;79.47;;;;;;;;;;5092461;28;20051;-69
2024/01/16 06:51:58;;;;;;;93.45;90.18;;;;;;;;;;5071927;28;20096;-71
2024/01/16 06:54:25;;;;;;;96.05;92.80;;;;;;;;;;5091809;28;20113;-72
2024/01/16 06:56:51;;;;;;;95.82;92.50;;;;;;;;;;5092342;28;20044;-72
2024/01/16 06:59:21;;;;;;;98.20;94.75;;;;;;;;;;5070251;28;20105;-69
2024/01/16 07:01:48;;;;;;;101.05;97.25;;;;;;;;;;5079524;28;22592;-71
2024/01/16 07:04:14;;;;;;;90.30;87.00;;;;;;;;;;5084850;28;20052;-72
2024/01/16 07:06:41;;;;;;;84.90;81.90;;;;;;;;;;5085604;28;20143;-71
2024/01/16 07:09:10;;;;;;;96.18;92.53;;;;;;;;;;5076420;28;20044;-71
2024/01/16 07:11:36;;;;;;;102.63;99.13;;;;;;;;;;5088967;28;20517;-71
2024/01/16 07:14:03;;;;;;;93.38;90.25;;;;;;;;;;5085338;28;20052;-71
2024/01/16 07:16:31;;;;;;;93.97;90.80;;;;;;;;;;5090766;28;20483;-70
2024/01/16 07:18:57;;;;;;;84.88;82.03;;;;;;;;;;5087807;28;20056;-71
2024/01/16 07:21:24;;;;;;;100.28;97.05;;;;;;;;;;5086205;28;20485;-72
2024/01/16 07:23:50;;;;;;;71.65;69.13;;;;;;;;;;5096739;28;20467;-72
2024/01/16 07:26:17;;;;;;;99.82;96.45;;;;;;;;;;5098546;28;20052;-72
2024/01/16 07:28:43;;;;;;;88.18;85.25;;;;;;;;;;5089201;28;20079;-70
2024/01/16 07:31:11;;;;;;;93.95;90.82;;;;;;;;;;5085274;28;20036;-69
2024/01/16 07:33:39;;;;;;;110.45;106.85;;;;;;;;;;5080558;28;20406;-69
2024/01/16 07:36:06;;;;;;;95.50;92.40;;;;;;;;;;5091285;28;20101;-69
2024/01/16 07:38:33;;;;;;;118.47;114.57;;;;;;;;;;5089409;28;20040;-68
2024/01/16 07:41:00;;;;;;;105.47;101.97;;;;;;;;;;5091207;28;20587;-68
2024/01/16 07:43:26;;;;;;;76.25;73.68;;;;;;;;;;5089338;28;20655;-69
2024/01/16 07:45:53;;;;;;;95.70;92.50;;;;;;;;;;5091327;28;20047;-68
2024/01/16 07:48:19;;;;;;;95.97;92.82;;;;;;;;;;5090083;28;20508;-68
2024/01/16 07:50:47;;;;;;;95.18;91.88;;;;;;;;;;5088080;28;20124;-69
2024/01/16 07:53:15;;;;;;;96.57;93.40;;;;;;;;;;5104991;28;20105;-69
2024/01/16 07:55:41;;;;;;;90.57;87.55;;;;;;;;;;5085741;28;20040;-69
2024/01/16 07:58:08;;;;;;;85.13;82.22;;;;;;;;;;5098381;28;20055;-68
2024/01/16 08:00:34;;;;;;;77.30;74.63;;;;;;;;;;5095448;28;20109;-68
2024/01/16 08:03:01;;;;;;;104.68;101.13;;;;;;;;;;5080078;28;20125;-70
2024/01/16 08:05:27;;;;;;;94.97;91.88;;;;;;;;;;5083849;28;20534;-68
2024/01/16 08:07:55;;;;;;;93.30;90.28;;;;;;;;;;5085454;28;20040;-68
2024/01/16 08:10:22;;;;;;;97.68;94.50;;;;;;;;;;5084786;28;20105;-68
2024/01/16 08:12:48;;;;;;;94.45;91.28;;;;;;;;;;5087466;28;20563;-67
2024/01/16 08:15:15;;;;;;;104.25;100.80;;;;;;;;;;5085976;28;20051;-69
2024/01/16 08:17:41;;;;;;;86.93;84.05;;;;;;;;;;5082289;28;20096;-70
2024/01/16 08:20:09;;;;;;;64.60;62.40;;;;;;;;;;5093827;28;20457;-70
2024/01/16 08:22:36;;;;;;;93.35;90.30;;;;;;;;;;5088639;28;20169;-68
2024/01/16 08:25:05;;;;;;;93.28;90.20;;;;;;;;;;5088744;28;20068;-69
2024/01/16 08:27:32;;;;;;;93.15;90.13;;;;;;;;;;5074345;28;20502;-69
2024/01/16 08:29:59;;;;;;;60.45;58.08;;;;;;;;;;5092822;28;20460;-69
2024/01/16 08:32:25;;;;;;;99.25;95.85;;;;;;;;;;5084987;28;20052;-69
2024/01/16 08:34:52;;;;;;;84.60;81.47;;;;;;;;;;5090400;28;20070;-68
2024/01/16 08:37:18;;;;;;;96.35;93.15;;;;;;;;;;5084499;28;20124;-68
2024/01/16 08:39:45;;;;;;;90.18;87.18;;;;;;;;;;5092083;28;20044;-68
2024/01/16 08:42:13;;;;;;;91.93;88.82;;;;;;;;;;5084721;28;20495;-67
2024/01/16 08:44:39;;;;;;;86.20;83.25;;;;;;;;;;5079041;28;20094;-67
2024/01/16 08:47:06;;;;;;;87.82;84.93;;;;;;;;;;5075338;28;20091;-68
2024/01/16 08:49:33;;;;;;;75.50;72.90;;;;;;;;;;5099599;28;20092;-68
2024/01/16 08:51:59;;;;;;;91.45;88.35;;;;;;;;;;5083182;28;20052;-68
2024/01/16 08:54:26;;;;;;;81.28;78.43;;;;;;;;;;5091284;28;20131;-68
2024/01/16 08:56:52;;;;;;;86.20;83.22;;;;;;;;;;5087701;28;20040;-69
2024/01/16 08:59:21;;;;;;;86.93;84.00;;;;;;;;;;5082675;28;20524;-68
2024/01/16 09:01:47;;;;;;;78.88;76.15;;;;;;;;;;5094055;28;20048;-68
2024/01/16 09:04:14;;;;;;;93.05;90.00;;;;;;;;;;5094403;28;20113;-69
2024/01/16 09:06:40;;;;;;;85.97;83.13;;;;;;;;;;5091534;28;20105;-68
2024/01/16 09:09:07;;;;;;;88.65;85.72;;;;;;;;;;5077430;28;20044;-68
2024/01/16 09:11:33;;;;;;;79.10;76.43;;;;;;;;;;5083270;28;20059;-69
2024/01/16 09:14:00;;;;;;;91.78;88.75;;;;;;;;;;5084635;28;20078;-70
2024/01/16 09:16:28;;;;;;;62.58;60.42;;;;;;;;;;5093844;28;20472;-69
2024/01/16 09:18:54;;;;;;;89.07;86.10;;;;;;;;;;5093693;28;20048;-69
2024/01/16 09:21:21;;;;;;;92.57;89.43;;;;;;;;;;5084507;28;20039;-68
2024/01/16 09:23:47;;;;;;;89.57;86.68;;;;;;;;;;5089076;28;20088;-68
2024/01/16 09:26:14;;;;;;;85.05;82.28;;;;;;;;;;5086520;28;20051;-68
2024/01/16 09:28:40;;;;;;;98.70;95.50;;;;;;;;;;5086076;28;20048;-68
2024/01/16 09:31:07;;;;;;;100.03;96.82;;;;;;;;;;5077135;28;20106;-68
2024/01/16 09:33:35;;;;;;;101.13;97.40;;;;;;;;;;5092636;28;20400;-68
2024/01/16 09:36:02;;;;;;;95.85;92.63;;;;;;;;;;5096760;28;20752;-68
2024/01/16 09:38:30;;;;;;;100.13;96.65;;;;;;;;;;5091127;28;20486;-68
2024/01/16 09:40:58;;;;;;;97.60;94.40;;;;;;;;;;5091581;28;20043;-68
2024/01/16 09:43:26;;;;;;;97.10;93.93;;;;;;;;;;5111037;28;20131;-68
2024/01/16 09:45:53;;;;;;;103.28;99.95;;;;;;;;;;5112137;28;20040;-68
2024/01/16 09:48:19;;;;;;;95.47;91.82;;;;;;;;;;5113994;28;20551;-68
2024/01/16 09:50:47;;;;;;;105.40;102.00;;;;;;;;;;5113999;28;20106;-68
2024/01/16 09:53:14;;;;;;;97.00;93.80;;;;;;;;;;5113586;28;20096;-68
2024/01/16 09:55:40;;;;;;;94.03;90.97;;;;;;;;;;5096976;28;20105;-68
2024/01/16 09:58:12;;;;;;;90.68;87.68;;;;;;;;;;5088608;28;20048;-68
2024/01/16 10:00:40;;;;;;;92.15;89.13;;;;;;;;;;5097050;28;20065;-69
2024/01/16 10:03:07;;;;;;;100.32;97.07;;;;;;;;;;5093034;28;20131;-69
2024/01/16 10:05:33;;;;;;;108.63;105.13;;;;;;;;;;5093652;28;20052;-68
2024/01/16 10:08:01;;;;;;;105.60;102.15;;;;;;;;;;5092623;28;20100;-69
2024/01/16 10:10:29;;;;;;;97.55;94.35;;;;;;;;;;5090851;28;20118;-68
2024/01/16 10:12:56;;;;;;;96.25;92.82;;;;;;;;;;5113419;28;20105;-68
2024/01/16 10:15:23;;;;;;;99.25;96.03;;;;;;;;;;5097969;28;20048;-69
2024/01/16 10:17:49;;;;;;;94.80;91.28;;;;;;;;;;5092930;28;20097;-68
2024/01/16 10:20:17;;;;;;;106.43;102.97;;;;;;;;;;5093053;28;20044;-68
2024/01/16 10:22:53;;;;;;;72.25;69.53;;;;;;;;;;5092916;28;20491;-67
2024/01/16 10:25:22;;;;;;;106.45;102.90;;;;;;;;;;5089220;28;20052;-69
2024/01/16 10:27:48;;;;;;;113.88;110.18;;;;;;;;;;5092326;28;20101;-68
2024/01/16 10:30:15;;;;;;;182.70;177.23;;;;;;;;;;5091444;28;20904;-69
2024/01/16 10:32:42;;;;;;;125.50;121.60;;;;;;;;;;5085358;28;20109;-70
2024/01/16 10:35:10;;;;;;;121.63;117.72;;;;;;;;;;5092459;28;20101;-69
2024/01/16 10:37:44;;;;;;;104.47;100.93;;;;;;;;;;5092381;28;20097;-69
2024/01/16 10:40:10;;;;;;;103.88;100.53;;;;;;;;;;5088781;28;20062;-69
2024/01/16 10:42:39;;;;;;;69.45;67.05;;;;;;;;;;5075688;28;20431;-69
2024/01/16 10:45:06;;;;;;;98.07;94.88;;;;;;;;;;5092308;28;20075;-70
2024/01/16 10:47:36;;;;;;;101.93;98.63;;;;;;;;;;5090302;28;20093;-68
2024/01/16 10:50:03;;;;;;;100.60;97.30;;;;;;;;;;5090829;28;20044;-68
2024/01/16 10:52:31;;;;;;;107.60;104.13;;;;;;;;;;5086830;28;20051;-70
2024/01/16 10:54:58;;;;;;;104.65;101.22;;;;;;;;;;5086518;28;20052;-69
2024/01/16 10:57:25;;;;;;;114.53;110.68;;;;;;;;;;5091934;28;20102;-70
2024/01/16 10:59:58;;;;;;;114.75;110.28;;;;;;;;;;5091678;28;20109;-69
2024/01/16 11:02:29;;;;;;;107.30;103.82;;;;;;;;;;5095049;28;20055;-69
2024/01/16 11:04:57;;;;;;;116.75;113.05;;;;;;;;;;5092336;28;20040;-68
2024/01/16 11:07:26;;;;;;;123.88;119.95;;;;;;;;;;5088005;28;20547;-68
2024/01/16 11:09:52;;;;;;;105.72;102.32;;;;;;;;;;5072580;28;20048;-69
2024/01/16 11:12:22;;;;;;;125.63;121.68;;;;;;;;;;5085287;28;20496;-68
2024/01/16 11:14:51;;;;;;;120.25;116.50;;;;;;;;;;5081294;28;20071;-69
2024/01/16 11:17:20;;;;;;;123.35;119.25;;;;;;;;;;5089897;28;20040;-68
2024/01/16 11:19:48;;;;;;;120.30;116.50;;;;;;;;;;5091403;28;20486;-68
2024/01/16 11:22:15;;;;;;;118.88;115.13;;;;;;;;;;5081841;28;20101;-68
2024/01/16 11:24:42;;;;;;;109.80;106.20;;;;;;;;;;5091699;28;20043;-69
2024/01/16 11:27:08;;;;;;;127.20;122.57;;;;;;;;;;5102179;28;20075;-68
2024/01/16 11:29:36;;;;;;;123.32;119.47;;;;;;;;;;5089655;28;20075;-68
2024/01/16 11:32:04;;;;;;;116.57;112.93;;;;;;;;;;5089971;28;20048;-68
2024/01/16 11:34:47;;;;;;;115.30;111.60;;;;;;;;;;5079385;28;20051;-69
2024/01/16 11:37:15;;;;;;;124.05;120.10;;;;;;;;;;5073101;28;20052;-68
2024/01/16 11:39:41;;;;;;;108.45;104.95;;;;;;;;;;5087732;28;20100;-67
2024/01/16 11:42:08;;;;;;;;;;;;;;;;;;5112159;28;20093;-68
2024/01/16 11:44:46;;;;;;;106.57;103.15;;;;;;;;;;5081056;28;19987;-68
2024/01/16 11:47:17;;;;;;;115.35;111.75;;;;;;;;;;5085996;28;20044;-68
2024/01/16 11:49:43;;;;;;;;;;;;;;;;;;5080738;28;20083;-68
2024/01/16 11:52:11;;;;;;;115.63;112.00;;;;;;;;;;5078595;28;19924;-68
2024/01/16 11:54:39;;;;;;;110.90;107.40;;;;;;;;;;5089709;28;20047;-68
2024/01/16 11:57:38;;;;;;;117.78;114.15;;;;;;;;;;5110482;28;20108;-67
2024/01/16 12:00:12;;;;;;;71.13;68.75;;;;;;;;;;5020522;28;20485;-69
2024/01/16 12:02:47;;;;;;;102.50;99.20;;;;;;;;;;5009024;28;20069;-68
2024/01/16 12:05:14;;;;;;;73.13;70.53;;;;;;;;;;5026353;28;20389;-67
2024/01/16 12:07:43;;;;;;;117.47;113.80;;;;;;;;;;5028958;28;20056;-68
2024/01/16 12:10:11;;;;;;;60.63;58.47;;;;;;;;;;5022588;28;20152;-69
2024/01/16 12:12:38;;;;;;;102.97;99.63;;;;;;;;;;5007445;28;20529;-67
2024/01/16 12:15:06;;;;;;;109.38;105.82;;;;;;;;;;5002342;28;20054;-69
2024/01/16 12:17:33;;;;;;;104.93;101.47;;;;;;;;;;4990223;28;20576;-69
2024/01/16 12:19:59;;;;;;;105.80;102.43;;;;;;;;;;4989032;28;20205;-68
2024/01/16 12:22:26;;;;;;;100.35;97.10;;;;;;;;;;4988640;28;20053;-68
2024/01/16 12:24:56;;;;;;;104.70;101.30;;;;;;;;;;4998406;28;20046;-68
2024/01/16 12:27:24;;;;;;;92.30;89.30;;;;;;;;;;5012256;28;20088;-68
2024/01/16 12:30:05;;;;;;;99.72;96.40;;;;;;;;;;5013081;28;20061;-68
2024/01/16 12:32:31;;;;;;;117.32;113.63;;;;;;;;;;5077534;28;20113;-67
2024/01/16 12:34:58;;;;;;;96.00;92.88;;;;;;;;;;5086481;28;20106;-66
2024/01/16 12:37:24;;;;;;;106.75;103.32;;;;;;;;;;5074661;28;20097;-67
2024/01/16 12:39:52;;;;;;;96.13;93.05;;;;;;;;;;5080375;28;20052;-66
2024/01/16 12:42:18;;;;;;;98.65;95.45;;;;;;;;;;5094952;28;20048;-67
2024/01/16 12:44:47;;;;;;;89.72;86.80;;;;;;;;;;5095524;28;20040;-68
2024/01/16 12:47:16;;;;;;;102.35;99.05;;;;;;;;;;5100707;28;20044;-68
2024/01/16 12:49:43;;;;;;;75.07;72.57;;;;;;;;;;5098313;28;20370;-68
2024/01/16 12:52:17;;;;;;;72.10;69.70;;;;;;;;;;5087918;28;20405;-68
2024/01/16 12:54:43;;;;;;;116.47;112.35;;;;;;;;;;5080812;28;20052;-68
2024/01/16 12:57:13;;;;;;;117.18;113.40;;;;;;;;;;5087993;28;20125;-68
2024/01/16 12:59:40;;;;;;;56.95;54.95;;;;;;;;;;5092482;28;20474;-69
2024/01/16 13:02:08;;;;;;;105.70;102.30;;;;;;;;;;5094338;28;20052;-68
2024/01/16 13:04:34;;;;;;;112.35;108.70;;;;;;;;;;5087780;28;20105;-68
2024/01/16 13:07:05;;;;;;;113.70;109.63;;;;;;;;;;5094136;28;20109;-68
2024/01/16 13:09:31;;;;;;;110.68;107.22;;;;;;;;;;5086953;28;20037;-69
2024/01/16 13:11:58;;;;;;;123.72;119.82;;;;;;;;;;5094162;28;20039;-68
2024/01/16 13:14:25;;;;;;;113.97;110.38;;;;;;;;;;5086922;28;20083;-68
2024/01/16 13:16:52;;;;;;;123.18;119.15;;;;;;;;;;5094094;28;20105;-68
2024/01/16 13:19:20;;;;;;;122.47;118.60;;;;;;;;;;5091972;28;20109;-67
2024/01/16 13:21:47;;;;;;;123.30;118.80;;;;;;;;;;5083513;28;20044;-67
2024/01/16 13:24:13;;;;;;;118.78;114.97;;;;;;;;;;5091676;28;20048;-68
2024/01/16 13:26:40;;;;;;;130.60;126.55;;;;;;;;;;5091702;28;20139;-70
2024/01/16 13:29:07;;;;;;;115.07;111.43;;;;;;;;;;5085073;28;20090;-69
2024/01/16 13:31:33;;;;;;;136.57;132.32;;;;;;;;;;5091930;28;20079;-66
2024/01/16 13:34:00;;;;;;;127.72;123.50;;;;;;;;;;5093114;28;20051;-70
2024/01/16 13:36:27;;;;;;;123.70;119.78;;;;;;;;;;5093152;28;20048;-69
2024/01/16 13:38:54;;;;;;;123.55;119.68;;;;;;;;;;5086531;28;20506;-69
2024/01/16 13:41:21;;;;;;;86.38;83.43;;;;;;;;;;5093266;28;20369;-69
2024/01/16 13:43:49;;;;;;;119.63;115.82;;;;;;;;;;5090885;28;20083;-69
2024/01/16 13:46:17;;;;;;;125.43;121.50;;;;;;;;;;5078251;28;20048;-70
2024/01/16 13:48:44;;;;;;;123.30;119.45;;;;;;;;;;5083562;28;20044;-69
2024/01/16 13:51:10;;;;;;;125.05;121.13;;;;;;;;;;5093572;28;20131;-69
2024/01/16 13:53:38;;;;;;;120.20;116.35;;;;;;;;;;5085675;28;20491;-68
2024/01/16 13:56:05;;;;;;;124.70;120.55;;;;;;;;;;5093214;28;20055;-68
2024/01/16 13:58:31;;;;;;;123.50;119.40;;;;;;;;;;5084918;28;20067;-68
2024/01/16 14:00:58;;;;;;;126.43;122.28;;;;;;;;;;5088997;28;20044;-69
2024/01/16 14:03:24;;;;;;;129.15;125.05;;;;;;;;;;5093559;28;20051;-69
2024/01/16 14:05:51;;;;;;;124.35;120.40;;;;;;;;;;5093548;28;20097;-68
2024/01/16 14:08:17;;;;;;;108.60;105.15;;;;;;;;;;5093314;28;20456;-68